createdAt,value
2019-02-06T00:02:22.895Z,99864.59
2019-02-06T00:04:51.916Z,99867.62
2019-02-06T00:07:20.920Z,99870.25
2019-02-06T00:09:49.793Z,99862.92
2019-02-06T00:12:18.990Z,99864.21
2019-02-06T00:14:47.921Z,99867.19
2019-02-06T00:17:16.853Z,99865.20
2019-02-06T00:19:45.792Z,99866.79
2019-02-06T00:22:14.671Z,99867.38
2019-02-06T00:24:43.548Z,99865.12
2019-02-06T00:27:12.334Z,99867.72
2019-02-06T00:29:41.593Z,99867.16
2019-02-06T00:32:10.859Z,99867.36
2019-02-06T00:34:39.659Z,99869.05
2019-02-06T00:37:08.529Z,99856.61
2019-02-06T00:39:37.323Z,99859.05
2019-02-06T00:42:06.446Z,99859.16
2019-02-06T00:44:35.753Z,99856.22
2019-02-06T00:47:04.698Z,99859.70
2019-02-06T00:49:33.499Z,99857.13
2019-02-06T00:52:02.380Z,99851.45
2019-02-06T00:54:31.177Z,99851.91
2019-02-06T00:56:59.967Z,99848.34
2019-02-06T00:59:28.958Z,99847.48
2019-02-06T01:01:58.058Z,99843.59
2019-02-06T01:04:27.622Z,99845.17
2019-02-06T01:06:57.436Z,99847.27
2019-02-06T01:09:26.439Z,99846.30
2019-02-06T01:11:55.237Z,99839.39
2019-02-06T01:14:24.239Z,99846.46
2019-02-06T01:16:53.188Z,99842.73
2019-02-06T01:19:22.016Z,99836.31
2019-02-06T01:21:50.880Z,99834.97
2019-02-06T01:24:19.783Z,99833.22
2019-02-06T01:26:48.766Z,99832.02
2019-02-06T01:29:17.573Z,99841.62
2019-02-06T01:31:46.927Z,99839.95
2019-02-06T01:34:15.739Z,99839.72
2019-02-06T01:36:44.600Z,99839.72
2019-02-06T01:39:13.827Z,99846.89
2019-02-06T01:41:42.851Z,99843.08
2019-02-06T01:44:11.914Z,99844.95
2019-02-06T01:46:40.782Z,99838.52
2019-02-06T01:49:09.727Z,99843.72
2019-02-06T01:51:38.787Z,99843.77
2019-02-06T01:54:07.745Z,99851.91
2019-02-06T01:56:36.591Z,99836.45
2019-02-06T01:59:05.527Z,99843.34
2019-02-06T02:01:34.407Z,99843.31
2019-02-06T02:04:03.728Z,99842.01
2019-02-06T02:06:32.668Z,99837.73
2019-02-06T02:09:01.815Z,99844.65
2019-02-06T02:11:30.787Z,99842.52
2019-02-06T02:13:59.944Z,99837.91
2019-02-06T02:16:30.084Z,99838.36
2019-02-06T02:19:00.159Z,99835.36
2019-02-06T02:21:29.138Z,99830.73
2019-02-06T02:23:58.210Z,99839.70
2019-02-06T02:26:27.038Z,99835.39
2019-02-06T02:28:55.953Z,99835.45
2019-02-06T02:31:24.802Z,99837.63
2019-02-06T02:33:53.980Z,99835.98
2019-02-06T02:36:22.885Z,99841.99
2019-02-06T02:38:52.053Z,99835.52
2019-02-06T02:41:21.099Z,99834.24
2019-02-06T02:43:49.980Z,99833.53
2019-02-06T02:46:19.078Z,99835.36
2019-02-06T02:48:47.904Z,99842.27
2019-02-06T02:51:17.100Z,99832.39
2019-02-06T02:53:45.997Z,99838.83
2019-02-06T02:56:14.908Z,99827.72
2019-02-06T02:58:43.741Z,99827.72
2019-02-06T03:01:49.863Z,99832.40
2019-02-06T03:04:34.462Z,99826.85
2019-02-06T03:07:03.453Z,99834.78
2019-02-06T03:09:32.444Z,99829.73
2019-02-06T03:12:01.984Z,99829.73
2019-02-06T03:14:30.947Z,99836.23
2019-02-06T03:17:03.174Z,99835.32
2019-02-06T03:19:30.491Z,99830.67
2019-02-06T03:21:59.427Z,99827.56
2019-02-06T03:24:28.332Z,99824.67
2019-02-06T03:26:57.183Z,99828.12
2019-02-06T03:29:25.961Z,99824.66
2019-02-06T03:31:54.770Z,99827.69
2019-02-06T03:34:23.555Z,99824.97
2019-02-06T03:36:52.414Z,99823.74
2019-02-06T03:39:21.315Z,99826.83
2019-02-06T03:41:50.393Z,99811.88
2019-02-06T03:44:19.270Z,99816.98
2019-02-06T03:46:48.130Z,99818.69
2019-02-06T03:49:16.934Z,99816.91
2019-02-06T03:51:45.843Z,99828.98
2019-02-06T03:54:14.807Z,99820.43
2019-02-06T03:56:43.678Z,99823.86
2019-02-06T03:59:12.532Z,99825.62
2019-02-06T04:01:41.491Z,99816.52
2019-02-06T04:04:10.291Z,99821.23
2019-02-06T04:06:39.108Z,99817.06
2019-02-06T04:09:09.094Z,99827.38
2019-02-06T04:11:37.983Z,99834.62
2019-02-06T04:14:07.707Z,99828.20
2019-02-06T04:16:36.548Z,99840.23
2019-02-06T04:19:05.618Z,99832.92
2019-02-06T04:21:34.556Z,99831.64
2019-02-06T04:24:03.562Z,99827.67
2019-02-06T04:26:32.457Z,99818.42
2019-02-06T04:29:01.718Z,99810.57
2019-02-06T04:31:30.529Z,99813.22
2019-02-06T04:33:59.421Z,99818.55
2019-02-06T04:36:28.314Z,99822.05
2019-02-06T04:38:57.136Z,99816.95
2019-02-06T04:41:26.004Z,99819.13
2019-02-06T04:43:55.094Z,99816.61
2019-02-06T04:46:23.890Z,99825.30
2019-02-06T04:48:52.707Z,99822.31
2019-02-06T04:51:21.541Z,99821.52
2019-02-06T04:53:50.359Z,99816.80
2019-02-06T04:56:19.270Z,99817.72
2019-02-06T04:58:48.057Z,99811.26
2019-02-06T05:01:17.231Z,99810.80
2019-02-06T05:03:46.040Z,99812.98
2019-02-06T05:06:15.097Z,99807.86
2019-02-06T05:08:44.034Z,99810.01
2019-02-06T05:11:12.937Z,99803.52
2019-02-06T05:13:41.734Z,99805.56
2019-02-06T05:16:10.605Z,99798.66
2019-02-06T05:18:39.622Z,99793.05
2019-02-06T05:21:08.411Z,99802.56
2019-02-06T05:23:37.209Z,99800.83
2019-02-06T05:26:06.186Z,99801.73
2019-02-06T05:28:35.084Z,99806.42
2019-02-06T05:31:03.961Z,99804.27
2019-02-06T05:33:33.132Z,99805.63
2019-02-06T05:36:01.933Z,99799.95
2019-02-06T05:38:30.733Z,99801.63
2019-02-06T05:40:59.534Z,99806.81
2019-02-06T05:43:28.630Z,99807.66
2019-02-06T05:45:57.489Z,99806.31
2019-02-06T05:48:26.303Z,99806.77
2019-02-06T05:50:55.182Z,99808.10
2019-02-06T05:53:24.092Z,99809.34
2019-02-06T05:55:52.915Z,99810.20
2019-02-06T05:58:21.832Z,99806.81
2019-02-06T06:00:50.888Z,99812.84
2019-02-06T06:03:19.839Z,99806.05
2019-02-06T06:05:49.229Z,99805.56
2019-02-06T06:08:18.038Z,99802.13
2019-02-06T06:10:46.987Z,99802.19
2019-02-06T06:13:18.376Z,99803.08
2019-02-06T06:15:46.461Z,99804.30
2019-02-06T06:18:15.542Z,99806.43
2019-02-06T06:20:44.417Z,99808.80
2019-02-06T06:23:13.293Z,99808.80
2019-02-06T06:25:42.277Z,99814.39
2019-02-06T06:28:11.238Z,99813.72
2019-02-06T06:30:40.056Z,99820.30
2019-02-06T06:33:08.862Z,99819.86
2019-02-06T06:35:37.755Z,99817.78
2019-02-06T06:38:07.170Z,99820.91
2019-02-06T06:40:36.046Z,99810.17
2019-02-06T06:43:05.326Z,99819.16
2019-02-06T06:45:34.124Z,99821.31
2019-02-06T06:48:02.914Z,99824.70
2019-02-06T06:50:31.727Z,99821.70
2019-02-06T06:53:00.597Z,99818.63
2019-02-06T06:55:29.597Z,99820.30
2019-02-06T06:57:58.400Z,99818.95
2019-02-06T07:00:28.782Z,99812.51
2019-02-06T07:02:57.830Z,99819.73
2019-02-06T07:05:26.777Z,99814.48
2019-02-06T07:07:56.033Z,99814.44
2019-02-06T07:10:25.363Z,99820.85
2019-02-06T07:12:54.451Z,99820.56
2019-02-06T07:15:25.569Z,99816.69
2019-02-06T07:17:54.600Z,99823.04
2019-02-06T07:20:23.750Z,99823.42
2019-02-06T07:22:52.651Z,99819.06
2019-02-06T07:25:22.093Z,99816.88
2019-02-06T07:27:51.038Z,99809.88
2019-02-06T07:30:22.715Z,99815.91
2019-02-06T07:32:52.316Z,99812.11
2019-02-06T07:35:21.294Z,99813.83
2019-02-06T07:37:50.156Z,99817.59
2019-02-06T07:40:19.525Z,99820.02
2019-02-06T07:42:48.391Z,99816.22
2019-02-06T07:45:17.560Z,99821.29
2019-02-06T07:47:46.636Z,99817.04
2019-02-06T07:50:19.265Z,99822.99
2019-02-06T07:52:48.148Z,99821.33
2019-02-06T07:55:17.566Z,99826.83
2019-02-06T07:57:46.500Z,99819.88
2019-02-06T08:00:15.443Z,99824.17
2019-02-06T08:02:44.958Z,99827.96
2019-02-06T08:05:16.215Z,99823.20
2019-02-06T08:07:45.155Z,99828.16
2019-02-06T08:10:23.535Z,99827.62
2019-02-06T08:12:52.772Z,99816.27
2019-02-06T08:15:21.842Z,99820.90
2019-02-06T08:17:50.717Z,99817.39
2019-02-06T08:20:20.205Z,99814.41
2019-02-06T08:22:49.234Z,99824.70
2019-02-06T08:25:18.438Z,99815.67
2019-02-06T08:27:47.586Z,99820.77
2019-02-06T08:30:30.872Z,99822.02
2019-02-06T08:32:59.845Z,99830.02
2019-02-06T08:35:28.717Z,99829.54
2019-02-06T08:37:57.768Z,99828.26
2019-02-06T08:40:27.124Z,99820.84
2019-02-06T08:42:56.022Z,99822.00
2019-02-06T08:45:24.974Z,99827.39
2019-02-06T08:47:54.108Z,99825.19
2019-02-06T08:50:23.332Z,99827.19
2019-02-06T08:52:52.571Z,99821.43
2019-02-06T08:55:23.352Z,99828.09
2019-02-06T08:57:52.697Z,99834.52
2019-02-06T09:00:26.797Z,99836.66
2019-02-06T09:02:55.860Z,99835.22
2019-02-06T09:05:25.192Z,99823.64
2019-02-06T09:07:54.237Z,99817.52
2019-02-06T09:10:24.046Z,99828.44
2019-02-06T09:12:53.863Z,99813.94
2019-02-06T09:15:22.807Z,99814.59
2019-02-06T09:17:51.755Z,99807.20
2019-02-06T09:20:22.825Z,99806.55
2019-02-06T09:22:51.886Z,99814.27
2019-02-06T09:25:21.481Z,99816.27
2019-02-06T09:27:50.514Z,99811.95
2019-02-06T09:30:21.605Z,99809.39
2019-02-06T09:32:50.625Z,99812.59
2019-02-06T09:35:19.712Z,99811.84
2019-02-06T09:37:48.668Z,99802.47
2019-02-06T09:40:20.083Z,99814.28
2019-02-06T09:42:49.050Z,99808.88
2019-02-06T09:45:18.183Z,99805.35
2019-02-06T09:47:47.839Z,99801.16
2019-02-06T09:50:19.897Z,99795.23
2019-02-06T09:52:48.921Z,99792.69
2019-02-06T09:55:18.008Z,99795.86
2019-02-06T09:57:46.903Z,99796.38
2019-02-06T10:00:19.276Z,99798.89
2019-02-06T10:02:48.101Z,99797.83
2019-02-06T10:05:17.137Z,99796.11
2019-02-06T10:07:46.322Z,99782.38
2019-02-06T10:10:17.667Z,99782.38
2019-02-06T10:12:46.606Z,99784.94
2019-02-06T10:15:19.015Z,99784.94
2019-02-06T10:17:48.637Z,99779.83
2019-02-06T10:20:19.729Z,99770.49
2019-02-06T10:22:48.856Z,99774.48
2019-02-06T10:25:17.786Z,99776.20
2019-02-06T10:27:46.726Z,99773.19
2019-02-06T10:30:25.888Z,99775.14
2019-02-06T10:32:54.941Z,99767.95
2019-02-06T10:35:23.799Z,99765.91
2019-02-06T10:37:52.665Z,99765.09
2019-02-06T10:40:21.719Z,99758.03
2019-02-06T10:42:50.606Z,99759.59
2019-02-06T10:45:21.007Z,99753.92
2019-02-06T10:47:50.399Z,99755.88
2019-02-06T10:50:22.066Z,99751.55
2019-02-06T10:52:50.929Z,99750.98
2019-02-06T10:55:20.141Z,99739.08
2019-02-06T10:57:49.711Z,99739.55
2019-02-06T11:00:25.185Z,99735.76
2019-02-06T11:02:54.426Z,99728.17
2019-02-06T11:05:23.287Z,99724.50
2019-02-06T11:07:52.077Z,99719.88
2019-02-06T11:10:22.569Z,99717.11
2019-02-06T11:12:51.522Z,99713.14
2019-02-06T11:15:21.000Z,99708.64
2019-02-06T11:17:50.301Z,99711.55
2019-02-06T11:20:19.942Z,99705.31
2019-02-06T11:22:48.903Z,99706.78
2019-02-06T11:25:18.224Z,99696.65
2019-02-06T11:27:47.183Z,99693.03
2019-02-06T11:30:22.095Z,99691.02
2019-02-06T11:32:51.661Z,99687.07
2019-02-06T11:35:20.752Z,99682.63
2019-02-06T11:37:50.735Z,99682.05
2019-02-06T11:40:21.620Z,99678.95
2019-02-06T11:42:51.107Z,99672.86
2019-02-06T11:45:29.629Z,99666.20
2019-02-06T11:47:58.702Z,99660.27
2019-02-06T11:50:33.314Z,99657.61
2019-02-06T11:53:02.243Z,99659.29
2019-02-06T11:55:31.318Z,99663.61
2019-02-06T11:58:00.206Z,99648.54
2019-02-06T12:00:36.649Z,99642.37
2019-02-06T12:03:05.602Z,99636.03
2019-02-06T12:05:34.521Z,99643.92
2019-02-06T12:08:03.385Z,99631.97
2019-02-06T12:10:32.319Z,99629.28
2019-02-06T12:13:01.254Z,99624.73
2019-02-06T12:15:30.110Z,99614.60
2019-02-06T12:17:58.976Z,99602.52
2019-02-06T12:20:27.921Z,99601.92
2019-02-06T12:22:56.846Z,99600.70
2019-02-06T12:25:25.802Z,99601.38
2019-02-06T12:27:55.401Z,99593.41
2019-02-06T12:30:27.612Z,99582.81
2019-02-06T12:32:56.569Z,99577.28
2019-02-06T12:35:25.522Z,99572.42
2019-02-06T12:37:54.462Z,99574.54
2019-02-06T12:40:23.604Z,99564.39
2019-02-06T12:42:52.653Z,99560.30
2019-02-06T12:45:23.059Z,99550.03
2019-02-06T12:47:52.887Z,99547.91
2019-02-06T12:50:22.938Z,99544.44
2019-02-06T12:52:52.743Z,99540.09
2019-02-06T12:55:25.188Z,99532.47
2019-02-06T12:57:54.334Z,99526.88
2019-02-06T13:00:28.501Z,99524.52
2019-02-06T13:03:00.138Z,99526.05
2019-02-06T13:05:28.893Z,99516.45
2019-02-06T13:07:58.070Z,99516.76
2019-02-06T13:10:33.905Z,99517.18
2019-02-06T13:12:57.512Z,99507.09
2019-02-06T13:15:26.582Z,99515.31
2019-02-06T13:17:55.884Z,99513.71
2019-02-06T13:20:26.799Z,99505.69
2019-02-06T13:22:55.732Z,99504.68
2019-02-06T13:25:25.754Z,99497.50
2019-02-06T13:27:54.635Z,99494.45
2019-02-06T13:30:25.937Z,99487.64
2019-02-06T13:32:54.858Z,99488.17
2019-02-06T13:35:23.801Z,99486.70
2019-02-06T13:37:53.646Z,99484.41
2019-02-06T13:40:23.762Z,99486.23
2019-02-06T13:42:52.700Z,99475.82
2019-02-06T13:45:26.685Z,99473.89
2019-02-06T13:47:55.614Z,99477.98
2019-02-06T13:50:25.377Z,99467.14
2019-02-06T13:52:54.441Z,99462.22
2019-02-06T13:55:24.264Z,99455.84
2019-02-06T13:57:53.207Z,99457.38
2019-02-06T14:00:27.930Z,99454.78
2019-02-06T14:02:56.982Z,99448.71
2019-02-06T14:05:27.950Z,99442.19
2019-02-06T14:07:59.130Z,99437.73
2019-02-06T14:10:28.808Z,99440.94
2019-02-06T14:12:57.743Z,99428.87
2019-02-06T14:15:29.458Z,99419.38
2019-02-06T14:17:58.419Z,99417.81
2019-02-06T14:20:27.861Z,99415.56
2019-02-06T14:23:00.057Z,99416.47
2019-02-06T14:25:35.564Z,99400.70
2019-02-06T14:28:13.570Z,99399.58
2019-02-06T14:31:15.446Z,99401.52
2019-02-06T14:34:12.303Z,99395.73
2019-02-06T14:37:43.530Z,99396.52
2019-02-06T14:40:43.294Z,99399.23
2019-02-06T14:43:26.243Z,99390.66
2019-02-06T14:46:33.699Z,99387.00
2019-02-06T14:49:25.635Z,99375.36
2019-02-06T14:52:34.458Z,99372.78
2019-02-06T14:55:28.629Z,99380.71
2019-02-06T14:58:07.468Z,99367.17
2019-02-06T15:01:00.123Z,99362.31
2019-02-06T15:03:47.275Z,99357.77
2019-02-06T15:06:56.382Z,99359.61
2019-02-06T15:09:56.242Z,99351.17
2019-02-06T15:13:00.956Z,99351.98
2019-02-06T15:15:55.161Z,99342.53
2019-02-06T15:18:53.050Z,99353.74
2019-02-06T15:21:56.768Z,99346.99
2019-02-06T15:25:04.921Z,99353.16
2019-02-06T15:28:14.584Z,99349.92
2019-02-06T15:31:12.609Z,99342.27
2019-02-06T15:34:21.273Z,99343.28
2019-02-06T15:37:18.998Z,99338.15
2019-02-06T15:40:27.623Z,99338.95
2019-02-06T15:43:03.192Z,99331.58
2019-02-06T15:46:17.622Z,99327.57
2019-02-06T15:49:06.957Z,99326.30
2019-02-06T15:52:00.207Z,99324.69
2019-02-06T15:55:28.278Z,99325.98
2019-02-06T15:58:54.003Z,99326.93
2019-02-06T16:01:44.230Z,99322.02
2019-02-06T16:04:34.873Z,99322.95
2019-02-06T16:07:53.250Z,99320.27
2019-02-06T16:10:41.590Z,99324.90
2019-02-06T16:13:18.507Z,99320.69
2019-02-06T16:16:13.246Z,99317.88
2019-02-06T16:19:07.077Z,99328.16
2019-02-06T16:21:58.169Z,99322.45
2019-02-06T16:24:51.606Z,99327.13
2019-02-06T16:27:37.723Z,99323.92
2019-02-06T16:30:19.181Z,99315.27
2019-02-06T16:33:28.877Z,99321.45
2019-02-06T16:36:50.311Z,99326.05
2019-02-06T16:39:47.667Z,99325.65
2019-02-06T16:42:34.070Z,99318.56
2019-02-06T16:45:39.525Z,99318.55
2019-02-06T16:48:52.696Z,99317.80
2019-02-06T16:51:39.281Z,99308.08
2019-02-06T16:54:52.562Z,99309.05
2019-02-06T16:58:03.835Z,99301.84
2019-02-06T17:01:00.934Z,99298.17
2019-02-06T17:04:01.381Z,99295.27
2019-02-06T17:07:10.444Z,99289.77
2019-02-06T17:10:14.743Z,99289.84
2019-02-06T17:13:27.993Z,99287.77
2019-02-06T17:16:24.688Z,99286.23
2019-02-06T17:19:17.428Z,99280.69
2019-02-06T17:22:45.718Z,99275.11
2019-02-06T17:25:45.157Z,99278.66
2019-02-06T17:28:20.892Z,99275.91
2019-02-06T17:31:24.051Z,99273.12
2019-02-06T17:34:31.217Z,99266.30
2019-02-06T17:37:31.907Z,99277.20
2019-02-06T17:40:23.808Z,99272.58
2019-02-06T17:43:03.744Z,99271.21
2019-02-06T17:46:12.004Z,99273.38
2019-02-06T17:49:26.359Z,99265.98
2019-02-06T17:52:17.825Z,99266.72
2019-02-06T17:55:19.072Z,99266.72
2019-02-06T17:57:49.071Z,99261.47
2019-02-06T18:00:28.429Z,99259.02
2019-02-06T18:02:58.439Z,99261.21
2019-02-06T18:05:27.310Z,99253.64
2019-02-06T18:07:56.439Z,99258.91
2019-02-06T18:10:25.603Z,99251.22
2019-02-06T18:12:54.560Z,99252.72
2019-02-06T18:15:23.542Z,99252.44
2019-02-06T18:17:52.334Z,99246.81
2019-02-06T18:20:21.290Z,99246.81
2019-02-06T18:22:50.180Z,99245.95
2019-02-06T18:25:19.440Z,99248.66
2019-02-06T18:27:48.352Z,99243.88
2019-02-06T18:30:19.144Z,99247.63
2019-02-06T18:32:48.096Z,99247.25
2019-02-06T18:35:17.641Z,99256.31
2019-02-06T18:37:49.660Z,99257.16
2019-02-06T18:40:19.484Z,99258.17
2019-02-06T18:42:48.858Z,99255.08
2019-02-06T18:45:18.299Z,99259.41
2019-02-06T18:47:47.842Z,99263.14
2019-02-06T18:50:19.920Z,99271.61
2019-02-06T18:52:49.057Z,99269.41
2019-02-06T18:55:17.991Z,99267.13
2019-02-06T18:57:47.029Z,99263.35
2019-02-06T19:00:20.348Z,99265.83
2019-02-06T19:02:49.298Z,99252.91
2019-02-06T19:05:19.681Z,99255.83
2019-02-06T19:07:48.617Z,99253.73
2019-02-06T19:10:19.260Z,99257.77
2019-02-06T19:12:50.695Z,99257.44
2019-02-06T19:15:18.946Z,99251.67
2019-02-06T19:17:48.448Z,99252.59
2019-02-06T19:20:17.851Z,99247.53
2019-02-06T19:22:46.833Z,99241.11
2019-02-06T19:25:15.898Z,99233.55
2019-02-06T19:27:44.852Z,99237.08
2019-02-06T19:30:23.678Z,99231.95
2019-02-06T19:32:52.752Z,99228.75
2019-02-06T19:35:21.613Z,99230.24
2019-02-06T19:37:50.483Z,99232.34
2019-02-06T19:40:19.450Z,99229.31
2019-02-06T19:42:58.788Z,99225.77
2019-02-06T19:45:18.952Z,99235.62
2019-02-06T19:47:48.167Z,99230.31
2019-02-06T19:50:26.129Z,99227.28
2019-02-06T19:52:56.161Z,99218.05
2019-02-06T19:55:25.105Z,99215.89
2019-02-06T19:57:53.984Z,99221.55
2019-02-06T20:00:25.947Z,99219.53
2019-02-06T20:02:54.774Z,99216.22
2019-02-06T20:05:23.983Z,99216.58
2019-02-06T20:07:53.142Z,99209.07
2019-02-06T20:10:24.724Z,99200.93
2019-02-06T20:12:53.669Z,99205.19
2019-02-06T20:15:22.634Z,99195.45
2019-02-06T20:17:51.583Z,99193.50
2019-02-06T20:20:21.554Z,99195.28
2019-02-06T20:22:50.671Z,99189.62
2019-02-06T20:25:19.944Z,99194.95
2019-02-06T20:27:48.994Z,99189.34
2019-02-06T20:30:20.549Z,99186.50
2019-02-06T20:32:49.509Z,99182.99
2019-02-06T20:35:18.472Z,99180.31
2019-02-06T20:37:47.417Z,99188.91
2019-02-06T20:40:21.897Z,99192.75
2019-02-06T20:42:50.932Z,99191.29
2019-02-06T20:45:19.986Z,99185.37
2019-02-06T20:47:48.927Z,99189.20
2019-02-06T20:50:20.501Z,99177.36
2019-02-06T20:52:49.405Z,99186.56
2019-02-06T20:55:19.862Z,99183.34
2019-02-06T20:57:49.250Z,99186.73
2019-02-06T21:00:20.936Z,99173.92
2019-02-06T21:02:49.912Z,99176.23
2019-02-06T21:05:18.773Z,99171.03
2019-02-06T21:07:47.644Z,99165.86
2019-02-06T21:10:19.074Z,99156.76
2019-02-06T21:12:47.965Z,99158.12
2019-02-06T21:15:17.111Z,99155.31
2019-02-06T21:17:46.262Z,99158.04
2019-02-06T21:20:17.681Z,99156.97
2019-02-06T21:22:46.630Z,99151.97
2019-02-06T21:25:17.103Z,99151.09
2019-02-06T21:27:46.350Z,99155.50
2019-02-06T21:30:17.880Z,99159.89
2019-02-06T21:32:46.799Z,99157.05
2019-02-06T21:35:15.662Z,99148.65
2019-02-06T21:37:44.651Z,99149.41
2019-02-06T21:40:20.326Z,99144.78
2019-02-06T21:42:49.798Z,99144.84
2019-02-06T21:45:18.724Z,99148.16
2019-02-06T21:47:47.785Z,99148.12
2019-02-06T21:50:18.013Z,99144.62
2019-02-06T21:52:46.997Z,99137.47
2019-02-06T21:55:17.044Z,99140.48
2019-02-06T21:57:46.035Z,99137.36
2019-02-06T22:02:37.945Z,99136.37
2019-02-06T22:05:07.246Z,99138.36
2019-02-06T22:07:36.034Z,99132.58
2019-02-06T22:10:06.602Z,99127.91
2019-02-06T22:12:35.491Z,99123.13
2019-02-06T22:15:07.061Z,99124.09
2019-02-06T22:17:35.864Z,99116.52
2019-02-06T22:20:05.587Z,99120.95
2019-02-06T22:22:34.448Z,99118.48
2019-02-06T22:25:03.693Z,99115.81
2019-02-06T22:27:32.489Z,99112.41
2019-02-06T22:30:01.293Z,99109.23
2019-02-06T22:32:30.239Z,99115.89
2019-02-06T22:34:59.046Z,99121.34
2019-02-06T22:37:27.849Z,99122.69
2019-02-06T22:39:57.032Z,99114.63
2019-02-06T22:42:25.822Z,99114.61
2019-02-06T22:44:54.652Z,99108.41
2019-02-06T22:47:23.442Z,99103.31
2019-02-06T22:49:52.338Z,99103.05
2019-02-06T22:52:23.008Z,99095.03
2019-02-06T22:54:51.922Z,99089.45
2019-02-06T22:57:20.714Z,99084.72
2019-02-06T22:59:49.618Z,99081.81
2019-02-06T23:02:18.597Z,99070.81
2019-02-06T23:04:47.423Z,99067.52
2019-02-06T23:07:16.370Z,99055.34
2019-02-06T23:09:45.357Z,99044.97
2019-02-06T23:12:14.307Z,99039.71
2019-02-06T23:14:43.275Z,99041.50
2019-02-06T23:17:12.136Z,99043.91
2019-02-06T23:19:40.932Z,99038.48
2019-02-06T23:22:09.744Z,99050.72
2019-02-06T23:24:38.618Z,99048.81
2019-02-06T23:27:07.420Z,99048.07
2019-02-06T23:29:36.354Z,99048.69
2019-02-06T23:32:05.807Z,99042.69
2019-02-06T23:34:34.683Z,99031.19
2019-02-06T23:37:03.659Z,99025.83
2019-02-06T23:39:32.609Z,99021.39
2019-02-06T23:42:01.562Z,99024.72
2019-02-06T23:44:30.357Z,99024.80
2019-02-06T23:46:59.238Z,99026.23
2019-02-06T23:49:28.075Z,99012.25
2019-02-06T23:51:56.969Z,99010.77
2019-02-06T23:54:25.905Z,99011.64
2019-02-06T23:56:55.089Z,99005.33
2019-02-06T23:59:25.066Z,99002.34
